createdAt,value
2018-09-28T00:00:24.250Z,10.3
2018-09-28T00:01:33.156Z,10.23
2018-09-28T00:02:41.799Z,10.25
2018-09-28T00:03:50.437Z,10.27
2018-09-28T00:04:59.345Z,10.24
2018-09-28T00:06:07.987Z,10.24
2018-09-28T00:07:16.630Z,10.23
2018-09-28T00:08:25.274Z,10.23
2018-09-28T00:09:34.179Z,10.21
2018-09-28T00:10:42.821Z,10.18
2018-09-28T00:11:51.462Z,10.2
2018-09-28T00:13:00.109Z,10.2
2018-09-28T00:14:09.023Z,10.24
2018-09-28T00:15:17.663Z,10.23
2018-09-28T00:16:26.303Z,10.1
2018-09-28T00:17:34.950Z,10.15
2018-09-28T00:18:43.583Z,10.06
2018-09-28T00:19:52.229Z,10.12
2018-09-28T00:21:00.867Z,10.07
2018-09-28T00:22:09.780Z,10.05
2018-09-28T00:23:18.420Z,10.05
2018-09-28T00:24:27.055Z,10.06
2018-09-28T00:25:35.966Z,10
2018-09-28T00:26:44.604Z,9.95
2018-09-28T00:27:53.255Z,10.05
2018-09-28T00:29:01.892Z,9.99
2018-09-28T00:30:10.536Z,9.99
2018-09-28T00:31:19.165Z,10.03
2018-09-28T00:32:27.815Z,9.94
2018-09-28T00:33:36.719Z,10
2018-09-28T00:34:45.623Z,10.02
2018-09-28T00:35:54.600Z,9.9
2018-09-28T00:37:03.183Z,9.88
2018-09-28T00:38:11.822Z,9.87
2018-09-28T00:39:20.465Z,9.99
2018-09-28T00:40:29.100Z,9.88
2018-09-28T00:41:37.746Z,9.85
2018-09-28T00:42:46.384Z,9.87
2018-09-28T00:43:55.029Z,9.82
2018-09-28T00:45:03.670Z,9.85
2018-09-28T00:46:12.304Z,9.81
2018-09-28T00:47:20.952Z,9.82
2018-09-28T00:48:29.588Z,9.77
2018-09-28T00:49:38.241Z,9.73
2018-09-28T00:50:46.872Z,9.67
2018-09-28T00:51:55.517Z,9.64
2018-09-28T00:53:04.155Z,9.64
2018-09-28T00:54:12.816Z,9.59
2018-09-28T00:55:21.450Z,9.59
2018-09-28T00:56:30.094Z,9.58
2018-09-28T00:57:38.734Z,9.52
2018-09-28T00:58:47.906Z,9.54
2018-09-28T00:59:56.567Z,9.42
2018-09-28T01:01:05.449Z,9.51
2018-09-28T01:02:14.088Z,9.47
2018-09-28T01:03:22.729Z,9.45
2018-09-28T01:04:31.384Z,9.4
2018-09-28T01:05:40.018Z,9.44
2018-09-28T01:06:48.662Z,9.4
2018-09-28T01:07:57.293Z,9.34
2018-09-28T01:09:05.943Z,9.34
2018-09-28T01:10:14.581Z,9.34
2018-09-28T01:11:23.223Z,9.33
2018-09-28T01:12:31.854Z,9.34
2018-09-28T01:13:40.503Z,9.36
2018-09-28T01:14:49.143Z,9.31
2018-09-28T01:15:57.789Z,9.3
2018-09-28T01:17:06.420Z,9.36
2018-09-28T01:18:15.059Z,9.33
2018-09-28T01:19:23.963Z,9.33
2018-09-28T01:20:32.612Z,9.31
2018-09-28T01:21:41.251Z,9.33
2018-09-28T01:22:50.148Z,9.33
2018-09-28T01:23:58.789Z,9.33
2018-09-28T01:25:07.430Z,9.31
2018-09-28T01:26:16.074Z,9.33
2018-09-28T01:27:24.714Z,9.29
2018-09-28T01:28:33.353Z,9.34
2018-09-28T01:29:41.996Z,9.33
2018-09-28T01:30:50.901Z,9.3
2018-09-28T01:31:59.538Z,9.33
2018-09-28T01:33:08.183Z,9.33
2018-09-28T01:34:16.821Z,9.3
2018-09-28T01:35:25.465Z,9.34
2018-09-28T01:36:34.101Z,9.36
2018-09-28T01:37:42.743Z,9.31
2018-09-28T01:38:51.381Z,9.3
2018-09-28T01:40:00.284Z,9.31
2018-09-28T01:41:08.930Z,9.39
2018-09-28T01:42:17.565Z,9.36
2018-09-28T01:43:26.206Z,9.39
2018-09-28T01:44:34.845Z,9.45
2018-09-28T01:45:43.489Z,9.47
2018-09-28T01:46:52.129Z,9.39
2018-09-28T01:48:00.778Z,9.56
2018-09-28T01:49:09.675Z,9.58
2018-09-28T01:50:18.584Z,9.63
2018-09-28T01:51:27.217Z,9.73
2018-09-28T01:52:35.863Z,9.76
2018-09-28T01:53:45.033Z,9.85
2018-09-28T01:54:53.675Z,9.87
2018-09-28T01:56:02.583Z,9.97
2018-09-28T01:57:11.490Z,10.05
2018-09-28T01:58:20.134Z,9.99
2018-09-28T01:59:28.770Z,10.05
2018-09-28T02:00:37.410Z,10.12
2018-09-28T02:01:46.052Z,10.2
2018-09-28T02:02:54.697Z,10.18
2018-09-28T02:04:03.336Z,10.24
2018-09-28T02:05:11.978Z,10.39
2018-09-28T02:06:20.617Z,10.43
2018-09-28T02:07:29.265Z,10.39
2018-09-28T02:08:37.913Z,10.45
2018-09-28T02:09:46.811Z,10.64
2018-09-28T02:10:55.449Z,10.67
2018-09-28T02:12:04.355Z,10.64
2018-09-28T02:13:12.991Z,10.64
2018-09-28T02:14:21.636Z,10.79
2018-09-28T02:15:30.274Z,10.79
2018-09-28T02:16:38.917Z,10.8
2018-09-28T02:17:47.834Z,10.87
2018-09-28T02:18:56.737Z,10.94
2018-09-28T02:20:05.381Z,10.84
2018-09-28T02:21:14.039Z,11
2018-09-28T02:22:22.663Z,10.98
2018-09-28T02:23:31.300Z,11.05
2018-09-28T02:24:39.948Z,11
2018-09-28T02:25:48.579Z,11.07
2018-09-28T02:26:57.228Z,10.98
2018-09-28T02:28:06.133Z,11.1
2018-09-28T02:29:14.781Z,11.1
2018-09-28T02:30:23.417Z,11.08
2018-09-28T02:31:32.332Z,11.08
2018-09-28T02:32:41.245Z,11.18
2018-09-28T02:33:49.895Z,11.15
2018-09-28T02:34:58.801Z,11.15
2018-09-28T02:36:07.432Z,11.18
2018-09-28T02:37:16.076Z,11.08
2018-09-28T02:38:24.978Z,11.12
2018-09-28T02:39:33.629Z,11.1
2018-09-28T02:40:42.263Z,11.15
2018-09-28T02:41:50.909Z,11.19
2018-09-28T02:42:59.545Z,11.19
2018-09-28T02:44:08.512Z,11.19
2018-09-28T02:45:17.145Z,11.3
2018-09-28T02:46:26.061Z,11.27
2018-09-28T02:47:34.976Z,11.25
2018-09-28T02:48:43.627Z,11.35
2018-09-28T02:49:52.524Z,11.26
2018-09-28T02:51:01.955Z,11.43
2018-09-28T02:52:10.875Z,11.35
2018-09-28T02:53:19.517Z,11.38
2018-09-28T02:54:28.161Z,11.43
2018-09-28T02:55:37.061Z,11.51
2018-09-28T02:56:45.742Z,11.44
2018-09-28T02:57:54.601Z,11.53
2018-09-28T02:59:03.259Z,11.58
2018-09-28T03:00:11.894Z,11.58
2018-09-28T03:01:20.542Z,11.59
2018-09-28T03:02:29.178Z,11.6
2018-09-28T03:03:37.833Z,11.63
2018-09-28T03:04:46.740Z,11.65
2018-09-28T03:05:55.651Z,11.6
2018-09-28T03:07:04.283Z,11.74
2018-09-28T03:08:12.928Z,11.62
2018-09-28T03:09:21.839Z,11.76
2018-09-28T03:10:30.486Z,11.73
2018-09-28T03:11:39.396Z,11.74
2018-09-28T03:12:48.297Z,11.73
2018-09-28T03:13:57.205Z,11.73
2018-09-28T03:15:05.849Z,11.74
2018-09-28T03:16:14.505Z,11.74
2018-09-28T03:17:23.143Z,11.77
2018-09-28T03:18:31.783Z,11.71
2018-09-28T03:19:40.698Z,11.77
2018-09-28T03:20:49.593Z,11.83
2018-09-28T03:21:58.244Z,11.78
2018-09-28T03:23:06.883Z,11.85
2018-09-28T03:24:15.801Z,11.81
2018-09-28T03:25:24.437Z,11.93
2018-09-28T03:26:33.082Z,11.88
2018-09-28T03:27:41.729Z,11.95
2018-09-28T03:28:50.377Z,11.95
2018-09-28T03:29:59.022Z,11.95
2018-09-28T03:31:07.925Z,11.88
2018-09-28T03:32:16.583Z,11.96
2018-09-28T03:33:25.225Z,12
2018-09-28T03:34:34.147Z,11.99
2018-09-28T03:35:42.779Z,11.97
2018-09-28T03:36:51.424Z,12.03
2018-09-28T03:38:00.060Z,12.02
2018-09-28T03:39:08.715Z,11.95
2018-09-28T03:40:17.609Z,12.07
2018-09-28T03:41:26.517Z,12.03
2018-09-28T03:42:35.160Z,12.1
2018-09-28T03:43:43.806Z,12.02
2018-09-28T03:44:52.445Z,12.11
2018-09-28T03:46:01.343Z,12.03
2018-09-28T03:47:09.990Z,11.99
2018-09-28T03:48:18.630Z,12.02
2018-09-28T03:49:27.284Z,12.1
2018-09-28T03:50:36.185Z,12.03
2018-09-28T03:51:44.833Z,12.11
2018-09-28T03:52:53.729Z,12.12
2018-09-28T03:54:02.381Z,12.15
2018-09-28T03:55:11.025Z,12.11
2018-09-28T03:56:19.673Z,12.1
2018-09-28T03:57:28.310Z,12.05
2018-09-28T03:58:36.968Z,12.17
2018-09-28T03:59:45.870Z,12.1
2018-09-28T04:00:54.842Z,12.11
2018-09-28T04:02:03.739Z,12.17
2018-09-28T04:03:12.392Z,12.12
2018-09-28T04:04:21.308Z,12.12
2018-09-28T04:05:29.952Z,12.21
2018-09-28T04:06:38.599Z,12.21
2018-09-28T04:07:47.501Z,12.1
2018-09-28T04:08:56.409Z,12.25
2018-09-28T04:10:05.048Z,12.21
2018-09-28T04:11:13.960Z,12.1
2018-09-28T04:12:22.592Z,12.17
2018-09-28T04:13:31.238Z,12.32
2018-09-28T04:14:39.886Z,12.32
2018-09-28T04:15:48.532Z,12.29
2018-09-28T04:16:57.179Z,12.29
2018-09-28T04:18:05.818Z,12.36
2018-09-28T04:19:14.722Z,12.25
2018-09-28T04:20:23.370Z,12.29
2018-09-28T04:21:32.024Z,12.26
2018-09-28T04:22:40.675Z,12.25
2018-09-28T04:23:49.591Z,12.28
2018-09-28T04:24:58.753Z,12.29
2018-09-28T04:26:07.932Z,12.35
2018-09-28T04:27:16.864Z,12.26
2018-09-28T04:28:25.504Z,12.36
2018-09-28T04:29:34.407Z,12.3
2018-09-28T04:30:43.320Z,12.39
2018-09-28T04:31:51.961Z,12.39
2018-09-28T04:33:00.878Z,12.4
2018-09-28T04:34:09.515Z,12.43
2018-09-28T04:35:18.432Z,12.43
2018-09-28T04:36:27.070Z,12.39
2018-09-28T04:37:35.718Z,12.36
2018-09-28T04:38:44.359Z,12.4
2018-09-28T04:39:53.005Z,12.39
2018-09-28T04:41:01.650Z,12.54
2018-09-28T04:42:10.293Z,12.51
2018-09-28T04:43:19.210Z,12.5
2018-09-28T04:44:27.848Z,12.48
2018-09-28T04:45:36.541Z,12.44
2018-09-28T04:46:45.134Z,12.54
2018-09-28T04:47:53.781Z,12.51
2018-09-28T04:49:02.421Z,12.51
2018-09-28T04:50:11.064Z,12.51
2018-09-28T04:51:19.707Z,12.51
2018-09-28T04:52:28.352Z,12.54
2018-09-28T04:53:37.018Z,12.61
2018-09-28T04:54:45.633Z,12.48
2018-09-28T04:55:54.273Z,12.58
2018-09-28T04:57:03.437Z,12.58
2018-09-28T04:58:12.079Z,12.61
2018-09-28T04:59:20.722Z,12.58
2018-09-28T05:00:29.361Z,12.58
2018-09-28T05:01:38.000Z,12.61
2018-09-28T05:02:46.650Z,12.62
2018-09-28T05:03:55.288Z,12.72
2018-09-28T05:05:03.934Z,12.72
2018-09-28T05:06:12.569Z,12.65
2018-09-28T05:07:21.215Z,12.72
2018-09-28T05:08:29.862Z,12.7
2018-09-28T05:09:38.507Z,12.73
2018-09-28T05:10:47.414Z,12.65
2018-09-28T05:11:56.326Z,12.7
2018-09-28T05:13:05.008Z,12.75
2018-09-28T05:14:13.963Z,12.68
2018-09-28T05:15:22.600Z,12.66
2018-09-28T05:16:31.248Z,12.78
2018-09-28T05:17:39.889Z,12.8
2018-09-28T05:18:48.536Z,12.75
2018-09-28T05:19:57.448Z,12.81
2018-09-28T05:21:06.087Z,12.81
2018-09-28T05:22:14.727Z,12.8
2018-09-28T05:23:23.398Z,12.75
2018-09-28T05:24:32.057Z,12.78
2018-09-28T05:25:40.695Z,12.76
2018-09-28T05:26:49.427Z,12.75
2018-09-28T05:27:58.019Z,12.76
2018-09-28T05:29:06.686Z,12.76
2018-09-28T05:30:16.040Z,12.76
2018-09-28T05:31:24.885Z,12.78
2018-09-28T05:32:34.270Z,12.81
2018-09-28T05:33:42.946Z,12.81
2018-09-28T05:34:51.857Z,12.8
2018-09-28T05:36:00.499Z,12.9
2018-09-28T05:37:09.210Z,12.81
2018-09-28T05:38:17.779Z,12.83
2018-09-28T05:39:26.997Z,12.86
2018-09-28T05:40:35.970Z,12.83
2018-09-28T05:41:44.613Z,12.8
2018-09-28T05:42:53.251Z,12.95
2018-09-28T05:44:01.898Z,12.95
2018-09-28T05:45:10.814Z,12.98
2018-09-28T05:46:19.516Z,13.01
2018-09-28T05:47:28.095Z,12.99
2018-09-28T05:48:36.744Z,12.99
2018-09-28T05:49:45.380Z,12.94
2018-09-28T05:50:54.022Z,12.93
2018-09-28T05:52:02.660Z,12.94
2018-09-28T05:53:11.306Z,13.02
2018-09-28T05:54:19.947Z,13.03
2018-09-28T05:55:28.595Z,12.98
2018-09-28T05:56:37.240Z,12.98
2018-09-28T05:57:45.876Z,13.01
2018-09-28T05:58:54.522Z,13.02
2018-09-28T06:00:03.430Z,13.05
2018-09-28T06:01:12.077Z,13.01
2018-09-28T06:02:20.973Z,13.12
2018-09-28T06:03:29.643Z,13.13
2018-09-28T06:04:38.294Z,13.21
2018-09-28T06:05:46.942Z,13.21
2018-09-28T06:06:55.578Z,13.17
2018-09-28T06:08:04.223Z,13.17
2018-09-28T06:09:13.131Z,13.2
2018-09-28T06:10:21.777Z,13.28
2018-09-28T06:11:30.419Z,13.19
2018-09-28T06:12:39.062Z,13.17
2018-09-28T06:13:47.964Z,13.26
2018-09-28T06:14:56.605Z,13.12
2018-09-28T06:16:05.607Z,13.11
2018-09-28T06:17:14.902Z,13.28
2018-09-28T06:18:23.673Z,13.27
2018-09-28T06:19:32.364Z,13.27
2018-09-28T06:20:41.321Z,13.26
2018-09-28T06:21:50.521Z,13.19
2018-09-28T06:22:59.433Z,13.23
2018-09-28T06:24:08.725Z,13.26
2018-09-28T06:25:17.332Z,13.21
2018-09-28T06:26:26.236Z,13.21
2018-09-28T06:27:34.901Z,13.17
2018-09-28T06:28:43.537Z,13.17
2018-09-28T06:29:52.194Z,13.19
2018-09-28T06:31:00.819Z,13.12
2018-09-28T06:32:09.464Z,13.16
2018-09-28T06:33:18.109Z,13.21
2018-09-28T06:34:26.741Z,13.16
2018-09-28T06:35:35.454Z,13.12
2018-09-28T06:36:44.027Z,13.21
2018-09-28T06:37:52.679Z,13.13
2018-09-28T06:39:01.322Z,13.17
2018-09-28T06:40:09.957Z,13.24
2018-09-28T06:41:18.594Z,13.19
2018-09-28T06:42:27.322Z,13.16
2018-09-28T06:43:36.291Z,13.16
2018-09-28T06:44:45.330Z,13.2
2018-09-28T06:45:53.943Z,13.16
2018-09-28T06:47:02.597Z,13.16
2018-09-28T06:48:11.286Z,13.16
2018-09-28T06:49:19.879Z,13.19
2018-09-28T06:50:28.520Z,13.24
2018-09-28T06:51:37.268Z,13.24
2018-09-28T06:52:45.919Z,13.26
2018-09-28T06:53:54.612Z,13.31
2018-09-28T06:55:03.211Z,13.36
2018-09-28T06:56:11.840Z,13.33
2018-09-28T06:57:20.492Z,13.39
2018-09-28T06:58:29.129Z,13.4
2018-09-28T06:59:37.777Z,13.42
2018-09-28T07:00:46.410Z,13.37
2018-09-28T07:01:55.327Z,13.45
2018-09-28T07:03:03.974Z,13.43
2018-09-28T07:04:12.627Z,13.43
2018-09-28T07:05:21.261Z,13.5
2018-09-28T07:06:29.906Z,13.39
2018-09-28T07:07:38.551Z,13.49
2018-09-28T07:08:47.194Z,13.55
2018-09-28T07:09:55.843Z,13.64
2018-09-28T07:11:04.475Z,13.58
2018-09-28T07:12:13.460Z,13.61
2018-09-28T07:13:22.031Z,13.67
2018-09-28T07:14:30.662Z,13.71
2018-09-28T07:15:39.315Z,13.75
2018-09-28T07:16:48.029Z,13.68
2018-09-28T07:17:57.120Z,13.64
2018-09-28T07:19:05.633Z,13.78
2018-09-28T07:20:14.286Z,13.76
2018-09-28T07:21:22.927Z,13.78
2018-09-28T07:22:31.630Z,13.79
2018-09-28T07:23:40.208Z,13.85
2018-09-28T07:24:48.913Z,13.85
2018-09-28T07:25:57.896Z,13.83
2018-09-28T07:27:06.807Z,13.89
2018-09-28T07:28:15.452Z,13.97
2018-09-28T07:29:24.088Z,13.91
2018-09-28T07:30:32.735Z,13.98
2018-09-28T07:31:41.373Z,13.98
2018-09-28T07:32:50.026Z,13.97
2018-09-28T07:33:58.664Z,14.05
2018-09-28T07:35:07.575Z,14.11
2018-09-28T07:36:16.385Z,14.15
2018-09-28T07:37:24.889Z,14.2
2018-09-28T07:38:33.523Z,14.2
2018-09-28T07:39:42.166Z,14.34
2018-09-28T07:40:50.808Z,14.36
2018-09-28T07:41:59.525Z,14.37
2018-09-28T07:43:08.484Z,14.43
2018-09-28T07:44:17.388Z,14.43
2018-09-28T07:45:26.293Z,14.43
2018-09-28T07:46:34.933Z,14.48
2018-09-28T07:47:43.859Z,14.53
2018-09-28T07:48:52.816Z,14.53
2018-09-28T07:50:01.467Z,14.59
2018-09-28T07:51:10.100Z,14.56
2018-09-28T07:52:18.753Z,14.53
2018-09-28T07:53:27.387Z,14.59
2018-09-28T07:54:36.302Z,14.53
2018-09-28T07:55:44.949Z,14.58
2018-09-28T07:56:53.587Z,14.55
2018-09-28T07:58:02.226Z,14.58
2018-09-28T07:59:10.883Z,14.45
2018-09-28T08:00:19.517Z,14.38
2018-09-28T08:01:28.163Z,14.41
2018-09-28T08:02:36.810Z,14.44
2018-09-28T08:03:45.493Z,14.44
2018-09-28T08:04:54.105Z,14.44
2018-09-28T08:06:02.736Z,14.43
2018-09-28T08:07:11.386Z,14.48
2018-09-28T08:08:20.029Z,14.45
2018-09-28T08:09:28.688Z,14.38
2018-09-28T08:10:37.319Z,14.36
2018-09-28T08:11:45.966Z,14.4
2018-09-28T08:12:54.620Z,14.48
2018-09-28T08:14:03.542Z,14.49
2018-09-28T08:15:12.181Z,14.49
2018-09-28T08:16:21.099Z,14.56
2018-09-28T08:17:29.740Z,14.53
2018-09-28T08:18:38.393Z,14.55
2018-09-28T08:19:47.036Z,14.53
2018-09-28T08:20:55.682Z,14.56
2018-09-28T08:22:04.321Z,14.55
2018-09-28T08:23:13.004Z,14.56
2018-09-28T08:24:21.613Z,14.61
2018-09-28T08:25:30.255Z,14.56
2018-09-28T08:26:38.904Z,14.62
2018-09-28T08:27:47.871Z,14.63
2018-09-28T08:28:56.980Z,14.63
2018-09-28T08:30:06.037Z,14.66
2018-09-28T08:31:14.691Z,14.66
2018-09-28T08:32:23.602Z,14.79
2018-09-28T08:33:32.248Z,14.85
2018-09-28T08:34:40.890Z,14.89
2018-09-28T08:35:50.109Z,14.86
2018-09-28T08:36:58.947Z,14.92
2018-09-28T08:38:07.591Z,15.05
2018-09-28T08:39:16.251Z,15
2018-09-28T08:40:24.897Z,15.08
2018-09-28T08:41:33.545Z,15
2018-09-28T08:42:42.186Z,15
2018-09-28T08:43:50.904Z,14.96
2018-09-28T08:44:59.815Z,15.08
2018-09-28T08:46:08.729Z,15.04
2018-09-28T08:47:17.369Z,15.11
2018-09-28T08:48:26.013Z,15.07
2018-09-28T08:49:34.658Z,15.04
2018-09-28T08:50:43.310Z,15.07
2018-09-28T08:51:51.948Z,15.04
2018-09-28T08:53:00.596Z,15
2018-09-28T08:54:09.510Z,15.02
2018-09-28T08:55:18.157Z,15.1
2018-09-28T08:56:26.798Z,14.86
2018-09-28T08:57:35.440Z,14.99
2018-09-28T08:58:44.081Z,14.93
2018-09-28T08:59:52.982Z,14.99
2018-09-28T09:01:01.630Z,14.93
2018-09-28T09:02:10.611Z,14.99
2018-09-28T09:03:19.555Z,15.02
2018-09-28T09:04:28.193Z,14.97
2018-09-28T09:05:36.842Z,14.87
2018-09-28T09:06:45.485Z,14.81
2018-09-28T09:07:54.128Z,14.9
2018-09-28T09:09:02.765Z,14.79
2018-09-28T09:10:11.423Z,14.89
2018-09-28T09:11:20.063Z,14.86
2018-09-28T09:12:28.710Z,14.9
2018-09-28T09:13:37.347Z,14.85
2018-09-28T09:14:45.992Z,14.86
2018-09-28T09:15:54.906Z,14.85
2018-09-28T09:17:03.817Z,14.82
2018-09-28T09:18:12.654Z,14.92
2018-09-28T09:19:21.693Z,14.92
2018-09-28T09:20:30.587Z,14.9
2018-09-28T09:21:39.239Z,14.85
2018-09-28T09:22:48.151Z,14.89
2018-09-28T09:23:56.889Z,14.9
2018-09-28T09:25:05.808Z,14.9
2018-09-28T09:26:14.448Z,14.79
2018-09-28T09:27:23.368Z,14.9
2018-09-28T09:28:32.274Z,14.89
2018-09-28T09:29:41.096Z,14.86
2018-09-28T09:30:49.736Z,14.93
2018-09-28T09:31:58.390Z,14.93
2018-09-28T09:33:07.194Z,14.92
2018-09-28T09:34:15.832Z,14.97
2018-09-28T09:35:24.473Z,15.07
2018-09-28T09:36:33.176Z,15.07
2018-09-28T09:37:41.836Z,14.96
2018-09-28T09:38:50.524Z,15.07
2018-09-28T09:39:59.240Z,15
2018-09-28T09:41:07.873Z,15.05
2018-09-28T09:42:16.525Z,15.05
2018-09-28T09:43:25.165Z,15.08
2018-09-28T09:44:33.814Z,15.18
2018-09-28T09:45:42.447Z,15.27
2018-09-28T09:46:51.100Z,15.35
2018-09-28T09:47:59.745Z,15.44
2018-09-28T09:49:08.393Z,15.55
2018-09-28T09:50:17.031Z,15.54
2018-09-28T09:51:26.239Z,15.63
2018-09-28T09:52:34.881Z,15.48
2018-09-28T09:53:43.523Z,15.51
2018-09-28T09:54:52.481Z,15.54
2018-09-28T09:56:01.128Z,15.62
2018-09-28T09:57:09.784Z,15.65
2018-09-28T09:58:18.966Z,15.7
2018-09-28T09:59:27.891Z,15.69
2018-09-28T10:00:36.790Z,15.85
2018-09-28T10:01:45.437Z,15.91
2018-09-28T10:02:54.077Z,15.99
2018-09-28T10:04:02.730Z,16.02
2018-09-28T10:05:11.365Z,15.96
2018-09-28T10:06:20.015Z,15.99
2018-09-28T10:07:28.661Z,15.99
2018-09-28T10:08:37.313Z,15.87
2018-09-28T10:09:46.478Z,15.87
2018-09-28T10:10:55.041Z,15.98
2018-09-28T10:12:03.952Z,15.88
2018-09-28T10:13:12.590Z,15.84
2018-09-28T10:14:21.503Z,15.85
2018-09-28T10:15:30.591Z,15.87
2018-09-28T10:16:39.237Z,15.87
2018-09-28T10:17:47.882Z,15.85
2018-09-28T10:18:56.530Z,15.88
2018-09-28T10:20:05.177Z,15.88
2018-09-28T10:21:13.911Z,15.9
2018-09-28T10:22:22.548Z,15.91
2018-09-28T10:23:31.199Z,15.9
2018-09-28T10:24:39.842Z,15.96
2018-09-28T10:25:48.492Z,15.92
2018-09-28T10:26:57.196Z,15.84
2018-09-28T10:28:06.186Z,15.84
2018-09-28T10:29:14.770Z,15.73
2018-09-28T10:30:23.415Z,15.87
2018-09-28T10:31:32.330Z,15.85
2018-09-28T10:32:40.968Z,15.72
2018-09-28T10:33:49.613Z,15.65
2018-09-28T10:34:58.257Z,15.63
2018-09-28T10:36:06.906Z,15.59
2018-09-28T10:37:15.826Z,15.51
2018-09-28T10:38:24.474Z,15.54
2018-09-28T10:39:33.406Z,15.6
2018-09-28T10:40:42.191Z,15.51
2018-09-28T10:41:50.680Z,15.48
2018-09-28T10:42:59.330Z,15.6
2018-09-28T10:44:08.231Z,15.66
2018-09-28T10:45:17.220Z,15.78
2018-09-28T10:46:25.847Z,15.73
2018-09-28T10:47:34.489Z,15.87
2018-09-28T10:48:43.134Z,16.09
2018-09-28T10:49:51.843Z,16.34
2018-09-28T10:51:00.751Z,16.47
2018-09-28T10:52:09.563Z,16.59
2018-09-28T10:53:18.044Z,16.73
2018-09-28T10:54:26.683Z,16.69
2018-09-28T10:55:35.335Z,16.89
2018-09-28T10:56:43.981Z,16.95
2018-09-28T10:57:52.626Z,16.99
2018-09-28T10:59:01.266Z,16.99
2018-09-28T11:00:09.916Z,16.99
2018-09-28T11:01:18.559Z,16.99
2018-09-28T11:02:27.207Z,16.99
2018-09-28T11:03:36.134Z,17.05
2018-09-28T11:04:44.816Z,17.02
2018-09-28T11:05:53.402Z,17.16
2018-09-28T11:07:02.049Z,17.2
2018-09-28T11:08:10.705Z,17.32
2018-09-28T11:09:19.429Z,17.34
2018-09-28T11:10:28.151Z,17.27
2018-09-28T11:11:37.088Z,17.39
2018-09-28T11:12:46.034Z,17.35
2018-09-28T11:13:55.317Z,17.37
2018-09-28T11:15:03.972Z,17.3
2018-09-28T11:16:12.674Z,17.34
2018-09-28T11:17:21.530Z,17.23
2018-09-28T11:18:30.274Z,17.23
2018-09-28T11:19:38.920Z,17.2
2018-09-28T11:20:47.839Z,17.22
2018-09-28T11:21:56.480Z,17.14
2018-09-28T11:23:05.392Z,17.04
2018-09-28T11:24:14.302Z,17.07
2018-09-28T11:25:22.950Z,16.98
2018-09-28T11:26:32.104Z,16.97
2018-09-28T11:27:41.990Z,16.83
2018-09-28T11:28:50.567Z,16.79
2018-09-28T11:29:59.214Z,16.58
2018-09-28T11:31:07.864Z,16.59
2018-09-28T11:32:16.567Z,16.54
2018-09-28T11:33:25.328Z,16.54
2018-09-28T11:34:34.106Z,16.43
2018-09-28T11:35:42.947Z,16.43
2018-09-28T11:36:51.586Z,16.28
2018-09-28T11:38:00.241Z,16.29
2018-09-28T11:39:09.089Z,16.32
2018-09-28T11:40:17.696Z,16.28
2018-09-28T11:41:26.947Z,16.31
2018-09-28T11:42:35.689Z,16.22
2018-09-28T11:43:44.861Z,16.22
2018-09-28T11:44:53.506Z,16.25
2018-09-28T11:46:02.251Z,16.26
2018-09-28T11:47:10.895Z,16.31
2018-09-28T11:48:19.539Z,16.32
2018-09-28T11:49:28.210Z,16.25
2018-09-28T11:50:36.973Z,16.28
2018-09-28T11:51:45.944Z,16.32
2018-09-28T11:52:54.530Z,16.37
2018-09-28T11:54:03.172Z,16.5
2018-09-28T11:55:11.821Z,16.74
2018-09-28T11:56:20.473Z,16.64
2018-09-28T11:57:29.575Z,16.68
2018-09-28T11:58:38.449Z,16.77
2018-09-28T11:59:47.098Z,16.89
2018-09-28T12:00:55.738Z,16.74
2018-09-28T12:02:04.386Z,16.73
2018-09-28T12:03:13.107Z,16.77
2018-09-28T12:04:22.284Z,16.58
2018-09-28T12:05:30.931Z,16.64
2018-09-28T12:06:39.604Z,16.58
2018-09-28T12:07:48.236Z,16.54
2018-09-28T12:08:57.135Z,16.47
2018-09-28T12:10:05.789Z,16.4
2018-09-28T12:11:14.689Z,16.37
2018-09-28T12:12:23.428Z,16.31
2018-09-28T12:13:32.514Z,16.25
2018-09-28T12:14:41.050Z,16.16
2018-09-28T12:15:50.242Z,16.12
2018-09-28T12:16:59.184Z,16.06
2018-09-28T12:18:07.876Z,16.05
2018-09-28T12:19:16.465Z,15.98
2018-09-28T12:20:25.106Z,15.99
2018-09-28T12:21:33.781Z,16
2018-09-28T12:22:42.407Z,16
2018-09-28T12:23:51.048Z,16.16
2018-09-28T12:24:59.701Z,16.13
2018-09-28T12:26:08.340Z,16.24
2018-09-28T12:27:17.043Z,16.34
2018-09-28T12:28:25.637Z,16.34
2018-09-28T12:29:34.286Z,16.44
2018-09-28T12:30:43.007Z,16.4
2018-09-28T12:31:51.576Z,16.58
2018-09-28T12:33:00.485Z,16.57
2018-09-28T12:34:09.659Z,16.68
2018-09-28T12:35:18.297Z,16.74
2018-09-28T12:36:26.993Z,16.74
2018-09-28T12:37:35.595Z,16.73
2018-09-28T12:38:44.243Z,16.86
2018-09-28T12:39:52.957Z,16.99
2018-09-28T12:41:01.526Z,17.16
2018-09-28T12:42:10.199Z,17.24
2018-09-28T12:43:18.821Z,17.2
2018-09-28T12:44:27.547Z,17.22
2018-09-28T12:45:36.549Z,17.31
2018-09-28T12:46:45.536Z,17.2
2018-09-28T12:47:54.188Z,17.2
2018-09-28T12:49:02.843Z,17.22
2018-09-28T12:50:11.549Z,17.19
2018-09-28T12:51:20.127Z,17.16
2018-09-28T12:52:28.770Z,17.14
2018-09-28T12:53:37.744Z,17.04
2018-09-28T12:54:46.360Z,16.97
2018-09-28T12:55:55.242Z,16.95
2018-09-28T12:57:03.885Z,16.98
2018-09-28T12:58:12.529Z,16.95
2018-09-28T12:59:21.184Z,16.86
2018-09-28T13:00:29.838Z,16.94
2018-09-28T13:01:38.802Z,16.89
2018-09-28T13:02:47.520Z,16.95
2018-09-28T13:03:56.489Z,16.99
2018-09-28T13:05:05.135Z,16.95
2018-09-28T13:06:13.788Z,16.83
2018-09-28T13:07:22.435Z,16.82
2018-09-28T13:08:31.419Z,16.84
2018-09-28T13:09:39.993Z,16.84
2018-09-28T13:10:48.635Z,16.84
2018-09-28T13:11:57.284Z,16.83
2018-09-28T13:13:05.928Z,16.73
2018-09-28T13:14:14.599Z,16.86
2018-09-28T13:15:23.871Z,16.84
2018-09-28T13:16:32.786Z,16.83
2018-09-28T13:17:41.436Z,16.84
2018-09-28T13:18:50.187Z,16.89
2018-09-28T13:19:58.734Z,17.1
2018-09-28T13:21:07.399Z,17.05
2018-09-28T13:22:16.024Z,17.24
2018-09-28T13:23:24.673Z,17.27
2018-09-28T13:24:33.907Z,17.27
2018-09-28T13:25:42.497Z,17.3
2018-09-28T13:26:51.438Z,17.3
2018-09-28T13:28:00.320Z,17.22
2018-09-28T13:29:08.992Z,17.02
2018-09-28T13:30:17.649Z,16.91
2018-09-28T13:31:26.265Z,16.84
2018-09-28T13:32:34.921Z,16.92
2018-09-28T13:33:43.562Z,16.77
2018-09-28T13:34:52.473Z,16.66
2018-09-28T13:36:01.114Z,16.69
2018-09-28T13:37:09.761Z,16.59
2018-09-28T13:38:18.977Z,16.55
2018-09-28T13:39:27.590Z,16.46
2018-09-28T13:40:36.228Z,16.4
2018-09-28T13:41:44.874Z,16.34
2018-09-28T13:42:53.516Z,16.16
2018-09-28T13:44:02.171Z,16.02
2018-09-28T13:45:11.593Z,15.96
2018-09-28T13:46:20.012Z,15.84
2018-09-28T13:47:28.646Z,15.75
2018-09-28T13:48:37.377Z,15.75
2018-09-28T13:49:45.940Z,15.6
2018-09-28T13:50:54.699Z,15.59
2018-09-28T13:52:03.597Z,15.57
2018-09-28T13:53:12.211Z,15.39
2018-09-28T13:54:21.186Z,15.43
2018-09-28T13:55:29.761Z,15.27
2018-09-28T13:56:38.445Z,15.39
2018-09-28T13:57:47.050Z,15.41
2018-09-28T13:58:55.961Z,15.33
2018-09-28T14:00:04.870Z,15.3
2018-09-28T14:01:13.521Z,15.29
2018-09-28T14:02:22.226Z,15.27
2018-09-28T14:03:30.812Z,15.35
2018-09-28T14:04:39.501Z,15.3
2018-09-28T14:05:48.460Z,15.37
2018-09-28T14:06:57.218Z,15.51
2018-09-28T14:08:05.763Z,15.54
2018-09-28T14:09:14.389Z,15.55
2018-09-28T14:10:23.143Z,15.52
2018-09-28T14:11:32.099Z,15.65
2018-09-28T14:12:40.798Z,15.57
2018-09-28T14:13:49.385Z,15.65
2018-09-28T14:14:58.024Z,15.6
2018-09-28T14:16:06.693Z,15.66
2018-09-28T14:17:15.319Z,15.75
2018-09-28T14:18:24.101Z,15.65
2018-09-28T14:19:32.607Z,15.65
2018-09-28T14:20:41.300Z,15.66
2018-09-28T14:21:49.899Z,15.7
2018-09-28T14:22:58.545Z,15.76
2018-09-28T14:24:07.191Z,15.67
2018-09-28T14:25:15.844Z,15.75
2018-09-28T14:26:24.529Z,15.75
2018-09-28T14:27:33.408Z,15.75
2018-09-28T14:28:42.058Z,15.78
2018-09-28T14:29:50.695Z,15.73
2018-09-28T14:30:59.342Z,15.63
2018-09-28T14:32:08.021Z,15.62
2018-09-28T14:33:16.630Z,15.66
2018-09-28T14:34:25.394Z,15.62
2018-09-28T14:35:33.929Z,15.6
2018-09-28T14:36:42.643Z,15.59
2018-09-28T14:37:51.223Z,15.54
2018-09-28T14:38:59.853Z,15.51
2018-09-28T14:40:08.548Z,15.57
2018-09-28T14:41:17.453Z,15.55
2018-09-28T14:42:26.407Z,15.57
2018-09-28T14:43:35.000Z,15.63
2018-09-28T14:44:43.712Z,15.59
2018-09-28T14:45:52.295Z,15.57
2018-09-28T14:47:00.940Z,15.57
2018-09-28T14:48:10.031Z,15.52
2018-09-28T14:49:18.686Z,15.6
2018-09-28T14:50:27.739Z,15.55
2018-09-28T14:51:36.284Z,15.43